createdAt,value
2017-11-01T00:01:17.459Z,18.37
2017-11-01T00:03:44.953Z,25.20
2017-11-01T00:06:12.575Z,21.97
2017-11-01T00:08:40.069Z,23.30
2017-11-01T00:11:07.598Z,21.23
2017-11-01T00:13:35.123Z,27.03
2017-11-01T00:16:03.423Z,24.53
2017-11-01T00:18:30.921Z,19.87
2017-11-01T00:20:58.415Z,21.60
2017-11-01T00:23:25.958Z,21.70
2017-11-01T00:25:53.451Z,23.13
2017-11-01T00:28:20.998Z,23.23
2017-11-01T00:30:48.502Z,21.90
2017-11-01T00:33:16.801Z,20.43
2017-11-01T00:35:44.318Z,22.57
2017-11-01T00:38:11.808Z,21.37
2017-11-01T00:40:39.339Z,19.70
2017-11-01T00:43:06.852Z,22.50
2017-11-01T00:45:34.392Z,18.93
2017-11-01T00:48:02.659Z,22.33
2017-11-01T00:50:30.975Z,18.17
2017-11-01T00:52:58.528Z,17.93
2017-11-01T00:55:26.031Z,18.50
2017-11-01T00:57:53.538Z,20.80
2017-11-01T01:00:21.075Z,15.93
2017-11-01T01:02:48.612Z,25.27
2017-11-01T01:05:16.128Z,15.63
2017-11-01T01:07:44.435Z,22.67
2017-11-01T01:10:11.944Z,22.03
2017-11-01T01:12:39.478Z,16.87
2017-11-01T01:15:07.032Z,20.53
2017-11-01T01:17:34.532Z,20.07
2017-11-01T01:20:02.062Z,21.50
2017-11-01T01:22:29.562Z,18.27
2017-11-01T01:24:57.085Z,28.93
2017-11-01T01:27:24.652Z,24.20
2017-11-01T01:29:52.155Z,21.47
2017-11-01T01:32:19.715Z,24.07
2017-11-01T01:34:47.206Z,21.60
2017-11-01T01:37:15.480Z,18.10
2017-11-01T01:39:43.022Z,18.93
2017-11-01T01:42:10.585Z,19.50
2017-11-01T01:44:38.115Z,20.30
2017-11-01T01:47:05.710Z,22.27
2017-11-01T01:49:33.235Z,18.80
2017-11-01T01:52:00.726Z,17.70
2017-11-01T01:54:28.242Z,24.97
2017-11-01T01:56:56.555Z,19.87
2017-11-01T01:59:24.084Z,17.33
2017-11-01T02:01:51.615Z,19.87
2017-11-01T02:04:19.104Z,23.40
2017-11-01T02:06:46.643Z,25.37
2017-11-01T02:09:14.143Z,20.00
2017-11-01T02:11:42.407Z,19.20
2017-11-01T02:14:09.937Z,21.27
2017-11-01T02:16:37.440Z,19.20
2017-11-01T02:19:04.982Z,21.13
2017-11-01T02:21:32.475Z,19.50
2017-11-01T02:24:00.746Z,23.60
2017-11-01T02:26:28.295Z,19.60
2017-11-01T02:28:55.799Z,24.33
2017-11-01T02:31:23.346Z,20.50
2017-11-01T02:33:51.619Z,21.90
2017-11-01T02:36:19.899Z,21.10
2017-11-01T02:38:48.225Z,18.23
2017-11-01T02:41:15.721Z,19.80
2017-11-01T02:43:43.269Z,28.93
2017-11-01T02:46:10.784Z,17.27
2017-11-01T02:48:39.078Z,21.87
2017-11-01T02:51:06.574Z,18.17
2017-11-01T02:53:34.094Z,18.80
2017-11-01T02:56:02.393Z,16.13
2017-11-01T02:58:29.894Z,17.10
2017-11-01T03:00:57.439Z,23.23
2017-11-01T03:03:24.937Z,13.17
2017-11-01T03:05:52.476Z,18.63
2017-11-01T03:08:20.037Z,19.13
2017-11-01T03:10:47.539Z,21.43
2017-11-01T03:13:15.234Z,17.50
2017-11-01T03:15:42.801Z,18.93
2017-11-01T03:18:10.363Z,24.00
2017-11-01T03:20:37.895Z,18.97
2017-11-01T03:23:05.419Z,17.57
2017-11-01T03:25:32.955Z,19.30
2017-11-01T03:28:00.527Z,24.23
2017-11-01T03:30:28.033Z,17.70
2017-11-01T03:32:55.555Z,15.83
2017-11-01T03:35:23.086Z,22.40
2017-11-01T03:37:50.609Z,18.70
2017-11-01T03:40:18.111Z,18.80
2017-11-01T03:42:45.675Z,19.40
2017-11-01T03:45:13.944Z,20.20
2017-11-01T03:47:41.472Z,23.70
2017-11-01T03:50:09.002Z,20.10
2017-11-01T03:52:36.548Z,22.60
2017-11-01T03:55:04.055Z,25.27
2017-11-01T03:57:31.593Z,20.00
2017-11-01T03:59:59.868Z,16.03
2017-11-01T04:02:28.130Z,19.73
2017-11-01T04:04:55.663Z,21.13
2017-11-01T04:07:23.184Z,22.03
2017-11-01T04:09:51.460Z,16.80
2017-11-01T04:12:19.731Z,14.80
2017-11-01T04:14:48.038Z,21.23
2017-11-01T04:17:15.627Z,16.97
2017-11-01T04:19:43.148Z,15.37
2017-11-01T04:22:11.416Z,20.80
2017-11-01T04:24:38.947Z,18.23
2017-11-01T04:27:06.474Z,22.27
2017-11-01T04:29:33.971Z,20.30
2017-11-01T04:32:01.547Z,16.63
2017-11-01T04:34:29.891Z,19.07
2017-11-01T04:36:57.403Z,17.40
2017-11-01T04:39:24.954Z,20.43
2017-11-01T04:41:52.467Z,17.40
2017-11-01T04:44:19.953Z,26.23
2017-11-01T04:46:47.475Z,19.03
2017-11-01T04:49:15.795Z,18.63
2017-11-01T04:51:43.313Z,25.70
2017-11-01T04:54:10.851Z,19.87
2017-11-01T04:56:41.427Z,22.50
2017-11-01T04:59:09.685Z,32.83
2017-11-01T05:01:38.136Z,22.93
2017-11-01T05:04:05.668Z,19.90
2017-11-01T05:06:33.195Z,18.77
2017-11-01T05:09:00.734Z,16.33
2017-11-01T05:11:33.957Z,15.77
2017-11-01T05:14:03.406Z,19.47
2017-11-01T05:16:32.798Z,17.70
2017-11-01T05:19:00.324Z,17.40
2017-11-01T05:21:27.883Z,19.60
2017-11-01T05:23:55.419Z,23.37
2017-11-01T05:26:22.923Z,19.20
2017-11-01T05:28:50.460Z,17.90
2017-11-01T05:31:19.808Z,19.50
2017-11-01T05:33:47.353Z,18.47
2017-11-01T05:36:14.847Z,13.90
2017-11-01T05:38:42.345Z,17.33
2017-11-01T05:41:09.878Z,19.30
2017-11-01T05:43:37.403Z,16.87
2017-11-01T05:46:04.975Z,16.57
2017-11-01T05:48:32.528Z,19.97
2017-11-01T05:51:00.033Z,18.00
2017-11-01T05:53:27.575Z,16.07
2017-11-01T05:55:56.988Z,16.00
2017-11-01T05:58:25.277Z,16.47
2017-11-01T06:00:53.556Z,13.77
2017-11-01T06:03:21.814Z,14.80
2017-11-01T06:05:49.409Z,14.90
2017-11-01T06:08:16.896Z,18.93
2017-11-01T06:10:44.431Z,16.53
2017-11-01T06:13:12.685Z,17.80
2017-11-01T06:15:40.199Z,17.63
2017-11-01T06:18:07.699Z,13.70
2017-11-01T06:20:35.183Z,19.73
2017-11-01T06:23:02.671Z,17.23
2017-11-01T06:25:30.201Z,16.20
2017-11-01T06:27:57.686Z,16.90
2017-11-01T06:30:26.000Z,18.00
2017-11-01T06:32:53.573Z,15.60
2017-11-01T06:35:21.092Z,13.50
2017-11-01T06:37:48.602Z,16.93
2017-11-01T06:40:16.719Z,16.20
2017-11-01T06:42:44.281Z,17.20
2017-11-01T06:45:11.820Z,22.33
2017-11-01T06:47:39.375Z,14.20
2017-11-01T06:50:06.937Z,16.37
2017-11-01T06:52:34.447Z,15.60
2017-11-01T06:55:02.732Z,17.63
2017-11-01T06:57:31.015Z,16.40
2017-11-01T06:59:58.608Z,15.43
2017-11-01T07:02:26.161Z,15.63
2017-11-01T07:04:54.566Z,19.13
2017-11-01T07:07:22.117Z,18.47
2017-11-01T07:09:49.647Z,15.57
2017-11-01T07:12:17.136Z,13.63
2017-11-01T07:14:44.736Z,18.83
2017-11-01T07:17:12.228Z,12.73
2017-11-01T07:19:39.750Z,16.57
2017-11-01T07:22:07.249Z,18.13
2017-11-01T07:24:34.797Z,13.27
2017-11-01T07:27:02.378Z,13.37
2017-11-01T07:29:29.872Z,14.17
2017-11-01T07:31:58.131Z,16.90
2017-11-01T07:34:25.673Z,17.50
2017-11-01T07:36:53.194Z,13.03
2017-11-01T07:39:20.700Z,18.43
2017-11-01T07:41:48.236Z,18.80
2017-11-01T07:44:15.727Z,26.93
2017-11-01T07:46:43.252Z,18.17
2017-11-01T07:49:10.747Z,16.23
2017-11-01T07:51:38.275Z,18.50
2017-11-01T07:54:05.799Z,22.00
2017-11-01T07:56:34.080Z,16.83
2017-11-01T07:59:01.618Z,19.60
2017-11-01T08:01:29.113Z,16.10
2017-11-01T08:03:57.415Z,18.57
2017-11-01T08:06:24.919Z,14.97
2017-11-01T08:08:52.442Z,19.20
2017-11-01T08:11:19.952Z,14.60
2017-11-01T08:13:47.443Z,17.30
2017-11-01T08:16:14.962Z,20.00
2017-11-01T08:18:42.466Z,18.60
2017-11-01T08:21:10.047Z,22.37
2017-11-01T08:23:38.321Z,18.70
2017-11-01T08:26:05.853Z,13.70
2017-11-01T08:28:33.352Z,20.10
2017-11-01T08:31:01.605Z,16.73
2017-11-01T08:33:29.148Z,16.60
2017-11-01T08:35:56.638Z,17.70
2017-11-01T08:38:24.202Z,15.93
2017-11-01T08:40:51.704Z,17.93
2017-11-01T08:43:19.200Z,16.00
2017-11-01T08:45:46.715Z,14.80
2017-11-01T08:48:14.982Z,17.20
2017-11-01T08:50:43.303Z,15.53
2017-11-01T08:53:10.881Z,17.97
2017-11-01T08:55:38.417Z,16.60
2017-11-01T08:58:06.671Z,18.57
2017-11-01T09:00:34.216Z,15.23
2017-11-01T09:03:01.917Z,20.53
2017-11-01T09:05:30.183Z,14.00
2017-11-01T09:07:58.118Z,13.80
2017-11-01T09:10:25.669Z,13.20
2017-11-01T09:12:53.229Z,14.07
2017-11-01T09:15:20.774Z,12.93
2017-11-01T09:17:49.162Z,12.80
2017-11-01T09:20:16.672Z,13.03
2017-11-01T09:22:44.187Z,17.50
2017-11-01T09:25:11.728Z,12.47
2017-11-01T09:27:40.024Z,12.53
2017-11-01T09:30:07.534Z,13.70
2017-11-01T09:32:35.040Z,17.97
2017-11-01T09:35:03.254Z,12.40
2017-11-01T09:37:31.568Z,12.67
2017-11-01T09:39:59.147Z,14.80
2017-11-01T09:42:26.667Z,14.23
2017-11-01T09:44:55.086Z,10.90
2017-11-01T09:47:22.622Z,12.93
2017-11-01T09:49:50.920Z,10.93
2017-11-01T09:52:18.456Z,13.13
2017-11-01T09:54:45.988Z,14.03
2017-11-01T09:57:13.511Z,14.90
2017-11-01T09:59:41.815Z,13.97
2017-11-01T10:02:09.324Z,16.03
2017-11-01T10:04:36.860Z,15.80
2017-11-01T10:07:04.420Z,21.33
2017-11-01T10:09:31.925Z,10.90
2017-11-01T10:11:59.494Z,11.43
2017-11-01T10:14:27.005Z,14.83
2017-11-01T10:16:54.559Z,14.00
2017-11-01T10:19:22.073Z,15.83
2017-11-01T10:21:49.586Z,14.53
2017-11-01T10:24:17.138Z,12.97
2017-11-01T10:26:44.689Z,12.50
2017-11-01T10:29:12.271Z,12.73
2017-11-01T10:31:39.775Z,14.27
2017-11-01T10:34:07.294Z,10.73
2017-11-01T10:36:34.859Z,15.37
2017-11-01T10:39:02.396Z,12.77
2017-11-01T10:41:30.705Z,13.70
2017-11-01T10:43:59.028Z,11.50
2017-11-01T10:46:26.553Z,14.97
2017-11-01T10:48:54.085Z,11.80
2017-11-01T10:51:21.662Z,14.77
2017-11-01T10:53:49.176Z,12.33
2017-11-01T10:56:16.722Z,12.00
2017-11-01T10:58:44.237Z,10.67
2017-11-01T11:01:11.805Z,14.40
2017-11-01T11:03:39.363Z,13.90
2017-11-01T11:06:06.921Z,11.60
2017-11-01T11:08:34.430Z,11.63
2017-11-01T11:11:01.951Z,11.50
2017-11-01T11:13:29.526Z,14.93
2017-11-01T11:15:57.100Z,11.20
2017-11-01T11:18:24.666Z,12.83
2017-11-01T11:20:52.959Z,13.23
2017-11-01T11:23:21.291Z,12.30
2017-11-01T11:25:48.803Z,12.23
2017-11-01T11:28:17.100Z,11.43
2017-11-01T11:30:44.662Z,13.73
2017-11-01T11:33:12.194Z,13.00
2017-11-01T11:35:39.782Z,9.20
2017-11-01T11:38:07.288Z,11.17
2017-11-01T11:40:34.853Z,12.73
2017-11-01T11:43:02.406Z,11.00
2017-11-01T11:45:29.907Z,9.10
2017-11-01T11:47:57.413Z,10.63
2017-11-01T11:50:24.963Z,8.70
2017-11-01T11:52:53.271Z,12.37
2017-11-01T11:55:20.824Z,7.93
2017-11-01T11:57:48.335Z,9.27
2017-11-01T12:00:15.986Z,12.10
2017-11-01T12:02:43.524Z,11.47
2017-11-01T12:05:11.059Z,9.90
2017-11-01T12:07:38.594Z,11.67
2017-11-01T12:10:06.104Z,10.70
2017-11-01T12:12:33.670Z,11.00
2017-11-01T12:15:01.213Z,6.93
2017-11-01T12:17:28.708Z,11.40
2017-11-01T12:19:56.203Z,9.23
2017-11-01T12:22:23.804Z,7.80
2017-11-01T12:24:51.361Z,8.13
2017-11-01T12:27:18.873Z,8.00
2017-11-01T12:29:46.425Z,7.87
2017-11-01T12:32:14.020Z,5.60
2017-11-01T12:34:41.524Z,10.87
2017-11-01T12:37:09.035Z,7.97
2017-11-01T12:39:36.599Z,8.27
2017-11-01T12:42:04.156Z,10.33
2017-11-01T12:44:31.716Z,9.20
2017-11-01T12:46:59.217Z,8.57
2017-11-01T12:49:26.768Z,6.30
2017-11-01T12:51:54.279Z,5.73
2017-11-01T12:54:21.825Z,7.77
2017-11-01T12:56:49.362Z,6.40
2017-11-01T12:59:16.889Z,6.00
2017-11-01T13:01:45.178Z,4.70
2017-11-01T13:04:13.505Z,5.77
2017-11-01T13:06:41.004Z,8.70
2017-11-01T13:09:08.500Z,7.87
2017-11-01T13:11:36.025Z,5.53
2017-11-01T13:14:04.325Z,7.80
2017-11-01T13:16:32.622Z,6.30
2017-11-01T13:19:00.109Z,6.40
2017-11-01T13:21:27.647Z,5.70
2017-11-01T13:23:55.170Z,5.90
2017-11-01T13:26:22.714Z,6.30
2017-11-01T13:28:50.644Z,6.63
2017-11-01T13:31:18.150Z,7.17
2017-11-01T13:33:45.655Z,5.30
2017-11-01T13:36:13.976Z,5.10
2017-11-01T13:38:41.553Z,6.73
2017-11-01T13:41:09.055Z,6.03
2017-11-01T13:43:36.603Z,5.63
2017-11-01T13:46:04.102Z,7.20
2017-11-01T13:48:32.371Z,5.20
2017-11-01T13:50:59.905Z,4.17
2017-11-01T13:53:27.455Z,5.10
2017-11-01T13:55:54.945Z,6.60
2017-11-01T13:58:22.443Z,5.20
2017-11-01T14:00:49.976Z,6.40
2017-11-01T14:03:17.524Z,6.17
2017-11-01T14:05:45.024Z,4.93
2017-11-01T14:08:12.553Z,4.10
2017-11-01T14:10:40.047Z,4.80
2017-11-01T14:13:08.352Z,5.13
2017-11-01T14:15:35.926Z,5.80
2017-11-01T14:18:03.458Z,6.33
2017-11-01T14:20:31.725Z,6.67
2017-11-01T14:22:59.249Z,4.93
2017-11-01T14:25:26.746Z,6.00
2017-11-01T14:27:54.297Z,4.33
2017-11-01T14:30:21.816Z,4.20
2017-11-01T14:32:49.387Z,6.80
2017-11-01T14:35:16.964Z,4.20
2017-11-01T14:37:44.488Z,8.20
2017-11-01T14:40:12.775Z,9.27
2017-11-01T14:42:41.104Z,4.13
2017-11-01T14:45:08.622Z,5.57
2017-11-01T14:47:36.147Z,6.53
2017-11-01T14:50:03.716Z,5.90
2017-11-01T14:52:31.287Z,4.43
2017-11-01T14:54:58.833Z,6.90
2017-11-01T14:57:26.429Z,5.37
2017-11-01T14:59:53.982Z,4.70
2017-11-01T15:02:21.504Z,9.13
2017-11-01T15:04:49.215Z,10.10
2017-11-01T15:07:16.764Z,35.80
2017-11-01T15:09:44.266Z,7.60
2017-11-01T15:12:11.779Z,6.13
2017-11-01T15:14:39.338Z,4.97
2017-11-01T15:17:06.859Z,3.90
2017-11-01T15:19:35.284Z,3.20
2017-11-01T15:22:02.796Z,3.17
2017-11-01T15:24:30.346Z,4.30
2017-11-01T15:26:57.860Z,4.90
2017-11-01T15:29:25.408Z,5.00
2017-11-01T15:31:53.684Z,7.77
2017-11-01T15:34:22.010Z,6.27
2017-11-01T15:36:49.522Z,3.83
2017-11-01T15:39:17.857Z,3.00
2017-11-01T15:41:51.995Z,5.13
2017-11-01T15:44:19.881Z,4.90
2017-11-01T15:46:47.534Z,4.40
2017-11-01T15:49:15.232Z,7.30
2017-11-01T15:51:43.530Z,10.43
2017-11-01T15:54:11.056Z,5.87
2017-11-01T15:56:38.585Z,7.20
2017-11-01T15:59:06.117Z,4.37
2017-11-01T16:01:33.633Z,4.40
2017-11-01T16:04:01.132Z,5.50
2017-11-01T16:06:29.433Z,6.90
2017-11-01T16:08:56.952Z,4.33
2017-11-01T16:11:24.493Z,6.50
2017-11-01T16:13:51.984Z,4.00
2017-11-01T16:16:19.487Z,5.50
2017-11-01T16:18:47.029Z,6.67
2017-11-01T16:21:15.316Z,10.20
2017-11-01T16:23:43.613Z,4.83
2017-11-01T16:26:11.121Z,6.60
2017-11-01T16:28:38.642Z,3.40
2017-11-01T16:31:06.169Z,3.63
2017-11-01T16:33:33.666Z,6.00
2017-11-01T16:36:01.210Z,4.90
2017-11-01T16:38:28.746Z,5.93
2017-11-01T16:40:56.299Z,11.97
2017-11-01T16:43:23.807Z,4.87
2017-11-01T16:45:52.125Z,7.50
2017-11-01T16:48:19.654Z,8.10
2017-11-01T16:50:47.931Z,8.63
2017-11-01T16:53:15.468Z,8.60
2017-11-01T16:55:43.032Z,3.80
2017-11-01T16:58:10.553Z,7.53
2017-11-01T17:00:38.068Z,3.73
2017-11-01T17:03:05.605Z,2.83
2017-11-01T17:05:33.135Z,9.13
2017-11-01T17:08:00.666Z,5.10
2017-11-01T17:10:28.187Z,4.03
2017-11-01T17:12:55.686Z,5.30
2017-11-01T17:15:23.238Z,3.43
2017-11-01T17:17:50.770Z,3.10
2017-11-01T17:20:18.310Z,5.00
2017-11-01T17:22:46.642Z,5.87
2017-11-01T17:25:14.177Z,6.60
2017-11-01T17:27:41.733Z,9.80
2017-11-01T17:30:09.226Z,6.37
2017-11-01T17:32:36.747Z,7.13
2017-11-01T17:35:04.316Z,7.33
2017-11-01T17:37:31.881Z,8.30
2017-11-01T17:40:00.195Z,6.50
2017-11-01T17:42:27.682Z,7.43
2017-11-01T17:44:55.224Z,10.20
2017-11-01T17:47:22.736Z,14.20
2017-11-01T17:49:50.309Z,14.00
2017-11-01T17:52:17.865Z,8.37
2017-11-01T17:54:45.380Z,12.33
2017-11-01T17:57:12.869Z,7.17
2017-11-01T17:59:40.399Z,7.00
2017-11-01T18:02:08.435Z,42.43
2017-11-01T18:04:35.962Z,7.33
2017-11-01T18:07:03.607Z,11.50
2017-11-01T18:09:31.180Z,7.97
2017-11-01T18:11:58.724Z,8.30
2017-11-01T18:14:26.239Z,7.10
2017-11-01T18:16:53.797Z,9.07
2017-11-01T18:19:21.291Z,6.17
2017-11-01T18:21:48.782Z,6.33
2017-11-01T18:24:17.245Z,5.50
2017-11-01T18:26:45.575Z,5.83
2017-11-01T18:29:13.092Z,6.47
2017-11-01T18:31:41.350Z,6.30
2017-11-01T18:34:08.906Z,8.63
2017-11-01T18:36:36.417Z,6.73
2017-11-01T18:39:04.477Z,8.70
2017-11-01T18:41:32.755Z,9.97
2017-11-01T18:44:01.037Z,9.03
2017-11-01T18:46:28.570Z,8.00
2017-11-01T18:48:56.070Z,9.23
2017-11-01T18:51:23.613Z,13.03
2017-11-01T18:53:51.946Z,11.77
2017-11-01T18:56:19.457Z,11.97
2017-11-01T18:58:46.948Z,9.87
2017-11-01T19:01:15.267Z,9.57
2017-11-01T19:03:42.799Z,8.03
2017-11-01T19:06:11.090Z,8.37
2017-11-01T19:08:38.630Z,6.50
2017-11-01T19:11:06.935Z,10.27
2017-11-01T19:13:34.473Z,7.20
2017-11-01T19:16:02.024Z,10.23
2017-11-01T19:18:29.589Z,8.20
2017-11-01T19:20:57.153Z,11.23
2017-11-01T19:23:24.648Z,9.20
2017-11-01T19:25:52.953Z,11.10
2017-11-01T19:28:20.483Z,14.60
2017-11-01T19:30:48.804Z,9.40
2017-11-01T19:33:16.325Z,7.37
2017-11-01T19:35:44.610Z,14.13
2017-11-01T19:38:12.945Z,12.23
2017-11-01T19:40:40.442Z,9.53
2017-11-01T19:43:08.010Z,13.83
2017-11-01T19:45:35.520Z,10.53
2017-11-01T19:48:03.095Z,12.17
2017-11-01T19:50:30.602Z,11.07
2017-11-01T19:52:58.176Z,16.07
2017-11-01T19:55:26.494Z,12.60
2017-11-01T19:57:54.007Z,16.80
2017-11-01T20:00:21.562Z,16.00
2017-11-01T20:02:49.053Z,15.10
2017-11-01T20:05:17.322Z,14.90
2017-11-01T20:07:45.226Z,14.73
2017-11-01T20:10:12.741Z,14.93
2017-11-01T20:12:40.252Z,12.70
2017-11-01T20:15:07.852Z,17.30
2017-11-01T20:17:35.388Z,13.27
2017-11-01T20:20:02.912Z,11.50
2017-11-01T20:22:30.483Z,14.00
2017-11-01T20:24:57.983Z,13.20
2017-11-01T20:27:25.521Z,10.80
2017-11-01T20:29:53.797Z,10.80
2017-11-01T20:32:21.300Z,12.23
2017-11-01T20:34:48.856Z,13.90
2017-11-01T20:37:16.370Z,10.40
2017-11-01T20:39:43.884Z,10.53
2017-11-01T20:42:11.415Z,13.97
2017-11-01T20:44:38.943Z,15.10
2017-11-01T20:47:06.436Z,15.70
2017-11-01T20:49:33.969Z,14.30
2017-11-01T20:52:01.496Z,12.10
2017-11-01T20:54:29.040Z,13.27
2017-11-01T20:56:57.338Z,14.80
2017-11-01T20:59:24.908Z,12.97
2017-11-01T21:01:52.445Z,12.97
2017-11-01T21:04:19.962Z,16.00
2017-11-01T21:06:47.501Z,15.53
2017-11-01T21:09:15.018Z,15.00
2017-11-01T21:11:42.560Z,14.23
2017-11-01T21:14:10.077Z,13.33
2017-11-01T21:16:37.592Z,13.07
2017-11-01T21:19:05.152Z,15.43
2017-11-01T21:21:32.648Z,18.07
2017-11-01T21:24:00.210Z,18.00
2017-11-01T21:26:27.706Z,18.63
2017-11-01T21:28:55.225Z,13.60
2017-11-01T21:31:22.752Z,10.97
2017-11-01T21:33:50.249Z,11.90
2017-11-01T21:36:17.789Z,15.10
2017-11-01T21:38:45.338Z,10.70
2017-11-01T21:41:12.890Z,12.70
2017-11-01T21:43:41.166Z,12.93
2017-11-01T21:46:08.704Z,14.27
2017-11-01T21:48:36.213Z,18.50
2017-11-01T21:51:03.764Z,16.53
2017-11-01T21:53:31.266Z,16.67
2017-11-01T21:55:58.793Z,16.10
2017-11-01T21:58:27.099Z,20.33
2017-11-01T22:00:54.720Z,17.33
2017-11-01T22:03:22.214Z,15.00
2017-11-01T22:05:49.764Z,11.90
2017-11-01T22:08:18.049Z,12.80
2017-11-01T22:10:45.592Z,21.33
2017-11-01T22:13:13.132Z,20.20
2017-11-01T22:15:40.642Z,14.57
2017-11-01T22:18:08.184Z,10.43
2017-11-01T22:20:35.718Z,11.00
2017-11-01T22:23:03.234Z,12.23
2017-11-01T22:25:31.532Z,11.53
2017-11-01T22:27:59.044Z,11.30
2017-11-01T22:30:26.601Z,8.57
2017-11-01T22:32:54.109Z,16.50
2017-11-01T22:35:21.596Z,8.33
2017-11-01T22:40:22.063Z,9.37
2017-11-01T22:42:49.563Z,7.20
2017-11-01T22:45:17.079Z,6.47
2017-11-01T22:47:44.618Z,14.73
2017-11-01T22:50:12.144Z,7.10
2017-11-01T22:52:39.685Z,7.53
2017-11-01T22:55:07.433Z,9.13
2017-11-01T22:57:34.983Z,8.60
2017-11-01T23:00:02.487Z,9.67
2017-11-01T23:02:30.076Z,8.60
2017-11-01T23:04:57.632Z,9.83
2017-11-01T23:07:25.131Z,11.80
2017-11-01T23:09:53.404Z,10.43
2017-11-01T23:12:21.699Z,8.17
2017-11-01T23:14:49.269Z,13.03
2017-11-01T23:17:16.790Z,12.37
2017-11-01T23:19:44.301Z,8.47
2017-11-01T23:22:11.857Z,9.03
2017-11-01T23:24:39.429Z,9.83
2017-11-01T23:27:06.952Z,7.47
2017-11-01T23:29:34.490Z,11.87
2017-11-01T23:32:02.329Z,10.03
2017-11-01T23:34:29.874Z,7.73
2017-11-01T23:36:58.807Z,9.80
2017-11-01T23:39:26.345Z,11.23
2017-11-01T23:41:53.977Z,11.13
2017-11-01T23:44:21.502Z,7.37
2017-11-01T23:46:49.046Z,12.80
2017-11-01T23:49:16.558Z,9.33
2017-11-01T23:51:44.092Z,9.53
2017-11-01T23:54:11.650Z,9.67
2017-11-01T23:56:39.194Z,14.27
2017-11-01T23:59:06.739Z,15.30
